createdAt,value
2023-04-09T00:01:01.389Z,3.04
2023-04-09T00:04:04.223Z,3.08
2023-04-09T00:07:06.536Z,3.06
2023-04-09T00:10:09.352Z,3.02
2023-04-09T00:13:11.779Z,2.97
2023-04-09T00:16:14.546Z,2.98
2023-04-09T00:19:16.882Z,3.00
2023-04-09T00:22:19.622Z,3.06
2023-04-09T00:25:21.910Z,3.01
2023-04-09T00:28:24.579Z,3.09
2023-04-09T00:31:26.935Z,3.11
2023-04-09T00:34:29.692Z,3.13
2023-04-09T00:37:32.225Z,3.12
2023-04-09T00:40:35.160Z,3.33
2023-04-09T00:43:37.705Z,3.31
2023-04-09T00:46:40.633Z,3.49
2023-04-09T00:49:43.170Z,3.40
2023-04-09T00:52:45.778Z,3.48
2023-04-09T00:55:48.316Z,3.45
2023-04-09T00:58:51.271Z,3.48
2023-04-09T01:01:54.456Z,3.46
2023-04-09T01:04:57.553Z,3.42
2023-04-09T01:08:15.150Z,3.34
2023-04-09T01:11:36.547Z,3.42
2023-04-09T01:14:44.897Z,3.31
2023-04-09T01:18:11.630Z,3.40
2023-04-09T01:21:15.124Z,3.46
2023-04-09T01:24:35.300Z,3.42
2023-04-09T01:27:44.118Z,3.38
2023-04-09T01:30:49.324Z,3.40
2023-04-09T01:33:54.043Z,3.49
2023-04-09T01:36:59.094Z,3.51
2023-04-09T01:40:01.810Z,3.49
2023-04-09T01:43:06.507Z,3.57
2023-04-09T01:46:09.753Z,3.56
2023-04-09T01:49:12.544Z,3.47
2023-04-09T01:52:14.956Z,3.56
2023-04-09T01:55:17.614Z,3.54
2023-04-09T01:58:19.958Z,3.53
2023-04-09T02:01:24.530Z,3.55
2023-04-09T02:04:30.916Z,3.41
2023-04-09T02:07:38.472Z,3.32
2023-04-09T02:10:43.701Z,3.26
2023-04-09T02:13:46.219Z,3.17
2023-04-09T02:16:48.811Z,3.09
2023-04-09T02:19:51.834Z,3.14
2023-04-09T02:22:54.509Z,3.04
2023-04-09T02:25:56.791Z,3.02
2023-04-09T02:28:59.797Z,3.01
2023-04-09T02:32:02.270Z,2.90
2023-04-09T02:35:05.066Z,2.88
2023-04-09T02:38:13.648Z,2.91
2023-04-09T02:41:16.360Z,2.90
2023-04-09T02:44:19.806Z,2.92
2023-04-09T02:47:22.581Z,3.02
2023-04-09T02:50:29.487Z,3.04
2023-04-09T02:53:32.421Z,3.09
2023-04-09T02:56:34.824Z,3.28
2023-04-09T02:59:39.086Z,3.29
2023-04-09T03:02:42.021Z,3.39
2023-04-09T03:05:44.954Z,3.38
2023-04-09T03:08:47.309Z,3.31
2023-04-09T03:11:50.005Z,3.30
2023-04-09T03:14:52.381Z,3.42
2023-04-09T03:17:55.020Z,3.48
2023-04-09T03:20:57.595Z,3.48
2023-04-09T03:24:02.285Z,3.44
2023-04-09T03:27:04.689Z,3.42
2023-04-09T03:30:08.032Z,3.40
2023-04-09T03:33:11.164Z,3.39
2023-04-09T03:36:14.729Z,3.41
2023-04-09T03:39:18.083Z,3.44
2023-04-09T03:42:20.998Z,3.47
2023-04-09T03:45:23.851Z,3.54
2023-04-09T03:48:27.219Z,3.46
2023-04-09T03:51:30.252Z,3.45
2023-04-09T03:54:33.585Z,3.43
2023-04-09T03:57:36.694Z,3.40
2023-04-09T04:00:40.024Z,3.39
2023-04-09T04:03:44.776Z,3.40
2023-04-09T04:06:47.580Z,3.44
2023-04-09T04:09:52.899Z,3.54
2023-04-09T04:12:55.425Z,3.50
2023-04-09T04:15:58.516Z,3.64
2023-04-09T04:19:01.047Z,3.66
2023-04-09T04:22:04.883Z,3.69
2023-04-09T04:25:08.695Z,3.71
2023-04-09T04:28:12.972Z,3.68
2023-04-09T04:31:15.967Z,3.81
2023-04-09T04:34:19.417Z,3.77
2023-04-09T04:37:22.689Z,3.61
2023-04-09T04:40:28.908Z,3.88
2023-04-09T04:43:32.455Z,3.79
2023-04-09T04:46:35.156Z,3.82
2023-04-09T04:49:37.759Z,3.92
2023-04-09T04:52:41.466Z,3.87
2023-04-09T04:55:44.003Z,3.80
2023-04-09T04:58:47.387Z,3.88
2023-04-09T05:01:50.233Z,3.89
2023-04-09T05:04:53.655Z,3.93
2023-04-09T05:07:57.576Z,4.06
2023-04-09T05:11:01.730Z,4.01
2023-04-09T05:14:06.268Z,4.04
2023-04-09T05:17:08.818Z,4.05
2023-04-09T05:20:14.195Z,3.98
2023-04-09T05:23:18.625Z,4.07
2023-04-09T05:26:21.827Z,4.24
2023-04-09T05:29:24.955Z,4.12
2023-04-09T05:32:27.606Z,4.16
2023-04-09T05:35:31.049Z,4.38
2023-04-09T05:38:34.291Z,4.30
2023-04-09T05:41:38.738Z,4.29
2023-04-09T05:44:43.357Z,4.45
2023-04-09T05:47:46.580Z,4.48
2023-04-09T05:50:55.603Z,4.43
2023-04-09T05:53:59.356Z,4.51
2023-04-09T05:57:08.480Z,4.85
2023-04-09T06:00:12.236Z,4.83
2023-04-09T06:03:19.113Z,4.79
2023-04-09T06:06:22.167Z,4.99
2023-04-09T06:09:24.724Z,5.16
2023-04-09T06:12:27.432Z,5.25
2023-04-09T06:15:29.773Z,5.21
2023-04-09T06:18:32.789Z,5.22
2023-04-09T06:21:35.435Z,5.14
2023-04-09T06:24:38.001Z,5.13
2023-04-09T06:27:40.382Z,5.26
2023-04-09T06:30:43.101Z,5.47
2023-04-09T06:33:45.452Z,5.50
2023-04-09T06:36:48.044Z,5.32
2023-04-09T06:40:00.327Z,5.42
2023-04-09T06:43:04.299Z,5.35
2023-04-09T06:46:11.635Z,5.45
2023-04-09T06:49:14.212Z,5.57
2023-04-09T06:52:16.559Z,5.50
2023-04-09T06:55:19.358Z,5.71
2023-04-09T06:58:21.818Z,5.88
2023-04-09T07:01:25.645Z,5.78
2023-04-09T07:04:28.580Z,5.45
2023-04-09T07:07:31.857Z,5.80
2023-04-09T07:10:34.556Z,5.45
2023-04-09T07:13:37.333Z,5.34
2023-04-09T07:16:39.679Z,5.34
2023-04-09T07:19:42.341Z,5.57
2023-04-09T07:22:44.643Z,5.92
2023-04-09T07:25:48.333Z,6.41
2023-04-09T07:28:50.724Z,6.61
2023-04-09T07:31:53.545Z,5.94
2023-04-09T07:34:57.388Z,5.82
2023-04-09T07:38:00.182Z,5.81
2023-04-09T07:41:02.654Z,5.86
2023-04-09T07:44:06.503Z,5.57
2023-04-09T07:47:09.187Z,5.78
2023-04-09T07:50:12.092Z,5.93
2023-04-09T07:53:15.210Z,6.03
2023-04-09T07:56:18.247Z,6.35
2023-04-09T07:59:20.834Z,6.74
2023-04-09T08:02:24.250Z,6.49
2023-04-09T08:05:28.344Z,7.09
2023-04-09T08:08:31.021Z,7.64
2023-04-09T08:11:33.648Z,7.79
2023-04-09T08:14:36.180Z,8.02
2023-04-09T08:17:38.917Z,8.22
2023-04-09T08:20:45.272Z,8.16
2023-04-09T08:23:48.178Z,8.01
2023-04-09T08:26:50.486Z,8.25
2023-04-09T08:29:53.113Z,8.47
2023-04-09T08:32:55.701Z,8.07
2023-04-09T08:35:58.338Z,8.13
2023-04-09T08:39:01.083Z,8.11
2023-04-09T08:42:06.515Z,8.25
2023-04-09T08:45:09.256Z,8.57
2023-04-09T08:48:13.732Z,8.23
2023-04-09T08:51:16.741Z,8.38
2023-04-09T08:54:20.228Z,8.58
2023-04-09T08:57:22.707Z,8.27
2023-04-09T09:00:25.506Z,8.31
2023-04-09T09:03:28.047Z,8.48
2023-04-09T09:06:33.129Z,9.57
2023-04-09T09:09:50.109Z,9.38
2023-04-09T09:12:52.838Z,8.49
2023-04-09T09:16:11.516Z,9.03
2023-04-09T09:19:26.944Z,9.94
2023-04-09T09:22:29.536Z,9.28
2023-04-09T09:25:37.757Z,9.15
2023-04-09T09:28:40.394Z,9.54
2023-04-09T09:31:47.441Z,9.67
2023-04-09T09:35:19.387Z,10.25
2023-04-09T09:38:22.022Z,10.49
2023-04-09T09:41:24.904Z,10.64
2023-04-09T09:44:31.850Z,9.87
2023-04-09T09:47:34.714Z,10.14
2023-04-09T09:50:38.515Z,8.94
2023-04-09T09:53:43.556Z,9.31
2023-04-09T09:56:46.642Z,9.57
2023-04-09T09:59:59.431Z,8.59
2023-04-09T10:03:08.044Z,8.79
2023-04-09T10:06:12.158Z,8.11
2023-04-09T10:09:15.648Z,7.92
2023-04-09T10:12:22.732Z,8.52
2023-04-09T10:15:25.972Z,8.46
2023-04-09T10:18:33.608Z,8.62
2023-04-09T10:21:42.637Z,8.78
2023-04-09T10:24:46.065Z,8.80
2023-04-09T10:28:00.146Z,8.81
2023-04-09T10:31:04.929Z,9.04
2023-04-09T10:34:09.534Z,8.94
2023-04-09T10:37:20.487Z,9.41
2023-04-09T10:40:22.965Z,9.05
2023-04-09T10:43:25.663Z,9.19
2023-04-09T10:46:34.354Z,9.40
2023-04-09T10:49:40.696Z,9.50
2023-04-09T10:52:44.567Z,9.86
2023-04-09T10:55:53.416Z,10.00
2023-04-09T10:58:56.499Z,10.31
2023-04-09T11:01:59.221Z,10.44
2023-04-09T11:05:04.769Z,10.27
2023-04-09T11:08:12.071Z,10.52
2023-04-09T11:11:14.581Z,10.16
2023-04-09T11:14:20.660Z,9.88
2023-04-09T11:17:23.119Z,9.68
2023-04-09T11:20:26.838Z,9.85
2023-04-09T11:23:29.373Z,9.39
2023-04-09T11:26:35.850Z,9.02
2023-04-09T11:29:38.316Z,8.94
2023-04-09T11:32:41.335Z,9.15
2023-04-09T11:35:43.669Z,9.77
2023-04-09T11:38:48.091Z,9.96
2023-04-09T11:41:50.699Z,9.95
2023-04-09T11:44:53.620Z,10.65
2023-04-09T11:47:56.548Z,11.30
2023-04-09T11:50:59.805Z,12.06
2023-04-09T11:54:03.586Z,11.93
2023-04-09T11:57:06.905Z,11.57
2023-04-09T12:00:13.856Z,11.35
2023-04-09T12:03:16.974Z,11.80
2023-04-09T12:06:20.689Z,11.09
2023-04-09T12:09:23.765Z,11.80
2023-04-09T12:12:26.249Z,11.42
2023-04-09T12:15:32.458Z,11.76
2023-04-09T12:18:36.505Z,11.98
2023-04-09T12:21:53.064Z,13.28
2023-04-09T12:24:58.194Z,14.16
2023-04-09T12:28:01.530Z,14.12
2023-04-09T12:31:03.982Z,14.90
2023-04-09T12:34:06.860Z,14.83
2023-04-09T12:37:09.057Z,14.03
2023-04-09T12:40:13.942Z,13.89
2023-04-09T12:43:16.617Z,15.92
2023-04-09T12:46:19.713Z,18.24
2023-04-09T12:49:21.993Z,18.45
2023-04-09T12:52:24.816Z,18.57
2023-04-09T12:55:27.990Z,16.72
2023-04-09T12:58:31.353Z,15.05
2023-04-09T13:01:33.768Z,14.18
2023-04-09T13:04:37.218Z,18.52
2023-04-09T13:07:41.511Z,19.29
2023-04-09T13:10:45.741Z,16.99
2023-04-09T13:13:48.027Z,18.09
2023-04-09T13:16:52.547Z,17.77
2023-04-09T13:19:54.994Z,17.81
2023-04-09T13:22:57.594Z,16.76
2023-04-09T13:26:01.290Z,19.97
2023-04-09T13:29:04.333Z,19.47
2023-04-09T13:32:07.705Z,15.65
2023-04-09T13:35:11.502Z,19.14
2023-04-09T13:38:13.828Z,22.23
2023-04-09T13:41:16.631Z,24.65
2023-04-09T13:44:19.087Z,24.44
2023-04-09T13:47:21.894Z,24.67
2023-04-09T13:50:24.274Z,25.94
2023-04-09T13:53:27.000Z,27.95
2023-04-09T13:56:30.767Z,30.64
2023-04-09T13:59:34.149Z,26.25
2023-04-09T14:02:40.072Z,25.05
2023-04-09T14:05:49.883Z,23.54
2023-04-09T14:08:53.127Z,24.49
2023-04-09T14:11:56.628Z,25.50
2023-04-09T14:14:58.887Z,22.32
2023-04-09T14:18:01.529Z,18.62
2023-04-09T14:21:04.048Z,16.39
2023-04-09T14:24:07.050Z,14.94
2023-04-09T14:27:11.247Z,14.28
2023-04-09T14:30:13.986Z,14.29
2023-04-09T14:33:16.309Z,14.41
2023-04-09T14:36:19.085Z,13.33
2023-04-09T14:39:21.810Z,14.21
2023-04-09T14:42:25.039Z,14.37
2023-04-09T14:45:29.349Z,14.21
2023-04-09T14:48:33.026Z,14.44
2023-04-09T14:51:35.575Z,14.87
2023-04-09T14:54:38.255Z,15.77
2023-04-09T14:57:41.057Z,14.49
2023-04-09T15:00:45.104Z,15.09
2023-04-09T15:03:47.755Z,15.11
2023-04-09T15:06:50.668Z,14.45
2023-04-09T15:09:53.332Z,13.38
2023-04-09T15:12:55.959Z,12.52
2023-04-09T15:15:58.274Z,12.45
2023-04-09T15:19:02.680Z,11.92
2023-04-09T15:22:05.261Z,11.53
2023-04-09T15:25:08.119Z,11.27
2023-04-09T15:28:10.590Z,10.70
2023-04-09T15:31:13.293Z,10.51
2023-04-09T15:34:16.055Z,10.63
2023-04-09T15:37:18.678Z,10.57
2023-04-09T15:40:21.452Z,10.21
2023-04-09T15:43:24.292Z,10.08
2023-04-09T15:46:26.587Z,10.08
2023-04-09T15:49:29.189Z,10.15
2023-04-09T15:52:32.091Z,10.05
2023-04-09T15:55:34.757Z,10.01
2023-04-09T15:58:37.356Z,9.98
2023-04-09T16:01:41.241Z,9.91
2023-04-09T16:04:44.968Z,9.97
2023-04-09T16:07:49.946Z,9.78
2023-04-09T16:10:52.598Z,9.72
2023-04-09T16:13:56.167Z,9.72
2023-04-09T16:16:58.952Z,9.68
2023-04-09T16:20:01.314Z,9.69
2023-04-09T16:23:04.071Z,9.64
2023-04-09T16:26:07.022Z,9.69
2023-04-09T16:29:09.845Z,9.73
2023-04-09T16:32:12.559Z,9.60
2023-04-09T16:35:15.690Z,9.63
2023-04-09T16:38:18.054Z,9.52
2023-04-09T16:41:20.885Z,9.47
2023-04-09T16:44:23.141Z,9.48
2023-04-09T16:47:25.756Z,9.57
2023-04-09T16:50:28.703Z,9.39
2023-04-09T16:53:31.264Z,9.34
2023-04-09T16:56:33.683Z,9.31
2023-04-09T16:59:36.678Z,9.32
2023-04-09T17:02:39.609Z,9.37
2023-04-09T17:05:42.398Z,9.35
2023-04-09T17:08:45.130Z,9.25
2023-04-09T17:11:47.820Z,9.25
2023-04-09T17:14:50.216Z,9.13
2023-04-09T17:17:53.734Z,9.12
2023-04-09T17:20:56.488Z,9.03
2023-04-09T17:23:59.720Z,9.00
2023-04-09T17:27:02.308Z,8.94
2023-04-09T17:30:05.300Z,8.95
2023-04-09T17:33:07.680Z,8.98
2023-04-09T17:36:10.336Z,8.90
2023-04-09T17:39:13.082Z,8.89
2023-04-09T17:42:16.411Z,8.91
2023-04-09T17:45:18.682Z,9.08
2023-04-09T17:48:21.930Z,8.91
2023-04-09T17:51:24.352Z,9.07
2023-04-09T17:54:27.084Z,8.91
2023-04-09T17:57:29.374Z,8.82
2023-04-09T18:00:34.292Z,8.90
2023-04-09T18:03:37.319Z,8.79
2023-04-09T18:06:39.901Z,8.67
2023-04-09T18:09:42.510Z,8.59
2023-04-09T18:12:44.807Z,8.62
2023-04-09T18:15:47.774Z,8.56
2023-04-09T18:18:50.159Z,8.47
2023-04-09T18:21:52.907Z,8.45
2023-04-09T18:24:55.326Z,8.23
2023-04-09T18:27:57.838Z,8.07
2023-04-09T18:31:00.155Z,8.05
2023-04-09T18:34:03.058Z,7.75
2023-04-09T18:37:05.403Z,7.60
2023-04-09T18:40:12.311Z,7.48
2023-04-09T18:43:14.884Z,7.41
2023-04-09T18:46:18.222Z,7.52
2023-04-09T18:49:20.505Z,7.33
2023-04-09T18:52:23.113Z,7.33
2023-04-09T18:55:25.591Z,7.19
2023-04-09T18:58:28.346Z,7.25
2023-04-09T19:01:31.451Z,7.00
2023-04-09T19:04:36.546Z,6.89
2023-04-09T19:07:39.479Z,6.97
2023-04-09T19:10:42.331Z,6.83
2023-04-09T19:13:44.645Z,6.71
2023-04-09T19:16:47.270Z,6.61
2023-04-09T19:19:49.649Z,6.56
2023-04-09T19:22:56.717Z,6.78
2023-04-09T19:25:58.996Z,6.76
2023-04-09T19:29:03.752Z,6.63
2023-04-09T19:32:06.241Z,6.57
2023-04-09T19:35:08.958Z,6.36
2023-04-09T19:38:11.299Z,6.33
2023-04-09T19:41:13.993Z,6.33
2023-04-09T19:44:16.547Z,6.50
2023-04-09T19:47:19.292Z,6.50
2023-04-09T19:50:21.751Z,6.36
2023-04-09T19:53:24.386Z,6.19
2023-04-09T19:56:26.943Z,6.00
2023-04-09T19:59:29.909Z,5.99
2023-04-09T20:02:32.593Z,5.99
2023-04-09T20:05:35.304Z,6.06
2023-04-09T20:08:41.045Z,5.96
2023-04-09T20:11:44.125Z,5.85
2023-04-09T20:14:47.113Z,5.76
2023-04-09T20:17:50.636Z,5.71
2023-04-09T20:20:53.645Z,5.65
2023-04-09T20:23:56.627Z,5.58
2023-04-09T20:26:59.667Z,5.51
2023-04-09T20:30:03.359Z,5.78
2023-04-09T20:33:06.959Z,5.74
2023-04-09T20:36:16.672Z,5.81
2023-04-09T20:39:19.921Z,5.98
2023-04-09T20:42:22.894Z,5.72
2023-04-09T20:45:25.305Z,5.55
2023-04-09T20:48:33.978Z,5.45
2023-04-09T20:51:36.866Z,5.39
2023-04-09T20:54:39.507Z,5.34
2023-04-09T20:57:42.379Z,5.19
2023-04-09T21:00:46.340Z,5.16
2023-04-09T21:03:48.599Z,5.13
2023-04-09T21:06:51.972Z,5.13
2023-04-09T21:09:54.306Z,5.00
2023-04-09T21:12:56.959Z,4.97
2023-04-09T21:15:59.397Z,5.01
2023-04-09T21:19:07.246Z,4.99
2023-04-09T21:22:10.198Z,5.01
2023-04-09T21:25:15.131Z,5.17
2023-04-09T21:28:17.815Z,5.24
2023-04-09T21:31:21.448Z,5.32
2023-04-09T21:34:23.846Z,5.35
2023-04-09T21:37:28.894Z,5.41
2023-04-09T21:40:32.936Z,5.32
2023-04-09T21:43:35.604Z,5.09
2023-04-09T21:46:40.657Z,4.92
2023-04-09T21:49:46.473Z,4.89
2023-04-09T21:52:49.323Z,4.75
2023-04-09T21:55:51.976Z,4.73
2023-04-09T21:58:54.694Z,4.91
2023-04-09T22:01:57.890Z,5.03
2023-04-09T22:05:01.067Z,4.88
2023-04-09T22:08:03.549Z,4.76
2023-04-09T22:11:06.248Z,4.60
2023-04-09T22:14:08.600Z,4.48
2023-04-09T22:17:11.451Z,4.38
2023-04-09T22:20:14.127Z,4.29
2023-04-09T22:23:16.740Z,4.22
2023-04-09T22:26:19.378Z,4.17
2023-04-09T22:29:22.105Z,4.40
2023-04-09T22:32:24.484Z,4.45
2023-04-09T22:35:27.239Z,4.50
2023-04-09T22:38:29.604Z,4.69
2023-04-09T22:41:32.867Z,4.76
2023-04-09T22:44:35.265Z,4.49
2023-04-09T22:47:38.570Z,4.37
2023-04-09T22:50:40.925Z,4.23
2023-04-09T22:53:43.710Z,4.22
2023-04-09T22:56:46.305Z,4.20
2023-04-09T22:59:48.947Z,4.38
2023-04-09T23:02:51.783Z,4.44
2023-04-09T23:05:54.996Z,4.52
2023-04-09T23:08:59.862Z,4.48
2023-04-09T23:12:02.893Z,4.32
2023-04-09T23:15:05.663Z,4.18
2023-04-09T23:18:08.755Z,4.26
2023-04-09T23:21:11.217Z,4.23
2023-04-09T23:24:13.936Z,4.21
2023-04-09T23:27:16.247Z,4.11
2023-04-09T23:30:20.415Z,4.01
2023-04-09T23:33:23.024Z,3.94
2023-04-09T23:36:26.169Z,3.96
2023-04-09T23:39:31.361Z,3.98
2023-04-09T23:42:34.318Z,3.82
2023-04-09T23:45:36.897Z,3.82
2023-04-09T23:48:39.924Z,3.79
2023-04-09T23:51:42.551Z,3.74
2023-04-09T23:54:50.203Z,3.85
2023-04-09T23:57:52.690Z,3.90
